sensor_id;sensor_type;location;lat;lon;timestamp;P1;durP1;ratioP1;P2;durP2;ratioP2
11791;SDS011;5953;52.372;9.918;2022-10-16T00:01:35;2.33;;;0.80;;
11791;SDS011;5953;52.372;9.918;2022-10-16T00:04:03;2.40;;;0.93;;
11791;SDS011;5953;52.372;9.918;2022-10-16T00:06:32;2.53;;;0.70;;
11791;SDS011;5953;52.372;9.918;2022-10-16T00:08:59;1.77;;;0.90;;
11791;SDS011;5953;52.372;9.918;2022-10-16T00:11:28;3.10;;;0.90;;
11791;SDS011;5953;52.372;9.918;2022-10-16T00:14:00;3.13;;;0.67;;
11791;SDS011;5953;52.372;9.918;2022-10-16T00:16:30;2.07;;;1.10;;
11791;SDS011;5953;52.372;9.918;2022-10-16T00:18:58;1.23;;;0.83;;
11791;SDS011;5953;52.372;9.918;2022-10-16T00:21:27;3.90;;;0.80;;
11791;SDS011;5953;52.372;9.918;2022-10-16T00:23:57;2.77;;;0.87;;
11791;SDS011;5953;52.372;9.918;2022-10-16T00:26:26;2.00;;;0.93;;
11791;SDS011;5953;52.372;9.918;2022-10-16T00:28:56;1.80;;;0.70;;
11791;SDS011;5953;52.372;9.918;2022-10-16T00:31:24;1.00;;;0.80;;
11791;SDS011;5953;52.372;9.918;2022-10-16T00:33:53;2.80;;;0.93;;
11791;SDS011;5953;52.372;9.918;2022-10-16T00:36:22;3.40;;;0.80;;
11791;SDS011;5953;52.372;9.918;2022-10-16T00:38:51;0.80;;;0.80;;
11791;SDS011;5953;52.372;9.918;2022-10-16T00:41:22;0.87;;;0.80;;
11791;SDS011;5953;52.372;9.918;2022-10-16T00:43:51;1.37;;;0.90;;
11791;SDS011;5953;52.372;9.918;2022-10-16T00:46:21;2.50;;;0.80;;
11791;SDS011;5953;52.372;9.918;2022-10-16T00:48:52;1.87;;;1.10;;
11791;SDS011;5953;52.372;9.918;2022-10-16T00:51:25;1.70;;;0.80;;
11791;SDS011;5953;52.372;9.918;2022-10-16T00:53:57;1.00;;;1.00;;
11791;SDS011;5953;52.372;9.918;2022-10-16T00:56:26;1.30;;;0.90;;
11791;SDS011;5953;52.372;9.918;2022-10-16T00:58:53;1.20;;;0.90;;
11791;SDS011;5953;52.372;9.918;2022-10-16T01:01:21;1.63;;;1.10;;
11791;SDS011;5953;52.372;9.918;2022-10-16T01:03:49;0.93;;;0.70;;
11791;SDS011;5953;52.372;9.918;2022-10-16T01:06:25;1.17;;;1.00;;
11791;SDS011;5953;52.372;9.918;2022-10-16T01:09:07;1.40;;;1.30;;
11791;SDS011;5953;52.372;9.918;2022-10-16T01:11:44;1.30;;;1.20;;
11791;SDS011;5953;52.372;9.918;2022-10-16T01:14:18;3.07;;;1.10;;
11791;SDS011;5953;52.372;9.918;2022-10-16T01:16:53;7.20;;;1.43;;
11791;SDS011;5953;52.372;9.918;2022-10-16T01:19:36;1.33;;;0.97;;
11791;SDS011;5953;52.372;9.918;2022-10-16T01:22:18;1.80;;;1.10;;
11791;SDS011;5953;52.372;9.918;2022-10-16T01:24:48;2.83;;;1.13;;
11791;SDS011;5953;52.372;9.918;2022-10-16T01:27:19;3.53;;;1.40;;
11791;SDS011;5953;52.372;9.918;2022-10-16T01:29:52;1.43;;;1.30;;
11791;SDS011;5953;52.372;9.918;2022-10-16T01:32:23;2.10;;;1.67;;
11791;SDS011;5953;52.372;9.918;2022-10-16T01:34:58;2.17;;;1.50;;
11791;SDS011;5953;52.372;9.918;2022-10-16T01:37:31;2.30;;;1.50;;
11791;SDS011;5953;52.372;9.918;2022-10-16T01:40:03;2.87;;;1.60;;
11791;SDS011;5953;52.372;9.918;2022-10-16T01:42:37;2.93;;;2.07;;
11791;SDS011;5953;52.372;9.918;2022-10-16T01:45:09;2.87;;;1.93;;
11791;SDS011;5953;52.372;9.918;2022-10-16T01:47:40;4.40;;;2.03;;
11791;SDS011;5953;52.372;9.918;2022-10-16T01:50:09;3.83;;;1.80;;
11791;SDS011;5953;52.372;9.918;2022-10-16T01:52:40;3.23;;;1.93;;
11791;SDS011;5953;52.372;9.918;2022-10-16T01:55:11;3.53;;;2.03;;
11791;SDS011;5953;52.372;9.918;2022-10-16T01:57:44;1.73;;;1.60;;
11791;SDS011;5953;52.372;9.918;2022-10-16T02:00:15;2.63;;;1.87;;
11791;SDS011;5953;52.372;9.918;2022-10-16T02:02:47;3.77;;;2.37;;
11791;SDS011;5953;52.372;9.918;2022-10-16T02:05:20;3.07;;;2.13;;
11791;SDS011;5953;52.372;9.918;2022-10-16T02:07:51;2.50;;;2.20;;
11791;SDS011;5953;52.372;9.918;2022-10-16T02:10:19;2.00;;;1.80;;
11791;SDS011;5953;52.372;9.918;2022-10-16T02:12:50;4.60;;;2.00;;
11791;SDS011;5953;52.372;9.918;2022-10-16T02:15:23;3.13;;;2.30;;
11791;SDS011;5953;52.372;9.918;2022-10-16T02:17:51;3.20;;;2.57;;
11791;SDS011;5953;52.372;9.918;2022-10-16T02:20:19;2.70;;;2.00;;
11791;SDS011;5953;52.372;9.918;2022-10-16T02:22:52;3.60;;;2.07;;
11791;SDS011;5953;52.372;9.918;2022-10-16T02:25:24;2.77;;;2.33;;
11791;SDS011;5953;52.372;9.918;2022-10-16T02:27:56;3.47;;;2.37;;
11791;SDS011;5953;52.372;9.918;2022-10-16T02:30:30;3.67;;;2.33;;
11791;SDS011;5953;52.372;9.918;2022-10-16T02:33:03;3.53;;;2.20;;
11791;SDS011;5953;52.372;9.918;2022-10-16T02:35:34;3.83;;;1.90;;
11791;SDS011;5953;52.372;9.918;2022-10-16T02:38:03;3.33;;;2.30;;
11791;SDS011;5953;52.372;9.918;2022-10-16T02:40:32;2.77;;;2.00;;
11791;SDS011;5953;52.372;9.918;2022-10-16T02:43:03;3.20;;;2.10;;
11791;SDS011;5953;52.372;9.918;2022-10-16T02:45:32;3.57;;;2.10;;
11791;SDS011;5953;52.372;9.918;2022-10-16T02:48:00;3.33;;;2.00;;
11791;SDS011;5953;52.372;9.918;2022-10-16T02:50:28;1.90;;;1.80;;
11791;SDS011;5953;52.372;9.918;2022-10-16T02:52:56;2.67;;;1.90;;
11791;SDS011;5953;52.372;9.918;2022-10-16T02:55:23;2.97;;;1.80;;
11791;SDS011;5953;52.372;9.918;2022-10-16T02:57:51;3.63;;;2.00;;
11791;SDS011;5953;52.372;9.918;2022-10-16T03:00:20;4.67;;;1.90;;
11791;SDS011;5953;52.372;9.918;2022-10-16T03:02:48;3.83;;;2.10;;
11791;SDS011;5953;52.372;9.918;2022-10-16T03:05:16;5.67;;;2.43;;
11791;SDS011;5953;52.372;9.918;2022-10-16T03:07:44;2.87;;;1.97;;
11791;SDS011;5953;52.372;9.918;2022-10-16T03:10:12;3.53;;;2.50;;
11791;SDS011;5953;52.372;9.918;2022-10-16T03:12:40;3.90;;;2.27;;
11791;SDS011;5953;52.372;9.918;2022-10-16T03:15:08;5.33;;;2.37;;
11791;SDS011;5953;52.372;9.918;2022-10-16T03:17:37;3.60;;;2.40;;
11791;SDS011;5953;52.372;9.918;2022-10-16T03:20:05;2.23;;;2.03;;
11791;SDS011;5953;52.372;9.918;2022-10-16T03:22:34;3.03;;;2.37;;
11791;SDS011;5953;52.372;9.918;2022-10-16T03:25:01;3.57;;;2.30;;
11791;SDS011;5953;52.372;9.918;2022-10-16T03:27:29;4.57;;;2.30;;
11791;SDS011;5953;52.372;9.918;2022-10-16T03:29:57;3.00;;;2.60;;
11791;SDS011;5953;52.372;9.918;2022-10-16T03:32:25;2.97;;;2.40;;
11791;SDS011;5953;52.372;9.918;2022-10-16T03:34:56;4.47;;;2.00;;
11791;SDS011;5953;52.372;9.918;2022-10-16T03:37:24;3.90;;;2.30;;
11791;SDS011;5953;52.372;9.918;2022-10-16T03:39:52;3.10;;;2.30;;
11791;SDS011;5953;52.372;9.918;2022-10-16T03:42:21;3.07;;;2.63;;
11791;SDS011;5953;52.372;9.918;2022-10-16T03:44:48;3.00;;;2.33;;
11791;SDS011;5953;52.372;9.918;2022-10-16T03:47:16;3.17;;;2.27;;
11791;SDS011;5953;52.372;9.918;2022-10-16T03:49:47;3.10;;;2.80;;
11791;SDS011;5953;52.372;9.918;2022-10-16T03:52:16;4.13;;;2.80;;
11791;SDS011;5953;52.372;9.918;2022-10-16T03:54:49;3.40;;;2.50;;
11791;SDS011;5953;52.372;9.918;2022-10-16T03:57:17;2.73;;;2.20;;
11791;SDS011;5953;52.372;9.918;2022-10-16T03:59:46;3.73;;;2.57;;
11791;SDS011;5953;52.372;9.918;2022-10-16T04:02:14;3.47;;;2.90;;
11791;SDS011;5953;52.372;9.918;2022-10-16T04:04:42;3.73;;;2.70;;
11791;SDS011;5953;52.372;9.918;2022-10-16T04:07:10;3.40;;;2.73;;
11791;SDS011;5953;52.372;9.918;2022-10-16T04:09:39;5.73;;;3.00;;
11791;SDS011;5953;52.372;9.918;2022-10-16T04:12:06;3.57;;;3.10;;
11791;SDS011;5953;52.372;9.918;2022-10-16T04:14:34;3.10;;;2.77;;
11791;SDS011;5953;52.372;9.918;2022-10-16T04:17:02;6.27;;;3.40;;
11791;SDS011;5953;52.372;9.918;2022-10-16T04:19:30;4.37;;;3.40;;
11791;SDS011;5953;52.372;9.918;2022-10-16T04:21:57;6.67;;;2.83;;
11791;SDS011;5953;52.372;9.918;2022-10-16T04:24:25;4.83;;;2.77;;
11791;SDS011;5953;52.372;9.918;2022-10-16T04:26:54;4.67;;;3.10;;
11791;SDS011;5953;52.372;9.918;2022-10-16T04:29:22;3.43;;;2.97;;
11791;SDS011;5953;52.372;9.918;2022-10-16T04:31:50;6.33;;;2.90;;
11791;SDS011;5953;52.372;9.918;2022-10-16T04:34:18;5.80;;;2.80;;
11791;SDS011;5953;52.372;9.918;2022-10-16T04:36:46;2.83;;;2.57;;
11791;SDS011;5953;52.372;9.918;2022-10-16T04:39:15;4.23;;;2.20;;
11791;SDS011;5953;52.372;9.918;2022-10-16T04:41:43;8.37;;;2.43;;
11791;SDS011;5953;52.372;9.918;2022-10-16T04:44:12;4.47;;;2.20;;
11791;SDS011;5953;52.372;9.918;2022-10-16T04:46:40;2.70;;;2.13;;
11791;SDS011;5953;52.372;9.918;2022-10-16T04:49:08;4.80;;;2.53;;
11791;SDS011;5953;52.372;9.918;2022-10-16T04:51:35;3.47;;;2.50;;
11791;SDS011;5953;52.372;9.918;2022-10-16T04:54:03;4.80;;;2.20;;
11791;SDS011;5953;52.372;9.918;2022-10-16T04:56:31;2.63;;;2.23;;
11791;SDS011;5953;52.372;9.918;2022-10-16T04:58:59;4.93;;;2.80;;
11791;SDS011;5953;52.372;9.918;2022-10-16T05:01:28;4.53;;;2.70;;
11791;SDS011;5953;52.372;9.918;2022-10-16T05:03:56;5.20;;;2.60;;
11791;SDS011;5953;52.372;9.918;2022-10-16T05:06:23;3.03;;;2.47;;
11791;SDS011;5953;52.372;9.918;2022-10-16T05:08:51;5.67;;;3.00;;
11791;SDS011;5953;52.372;9.918;2022-10-16T05:11:19;5.63;;;2.60;;
11791;SDS011;5953;52.372;9.918;2022-10-16T05:13:47;5.60;;;2.93;;
11791;SDS011;5953;52.372;9.918;2022-10-16T05:16:18;3.03;;;2.60;;
11791;SDS011;5953;52.372;9.918;2022-10-16T05:18:47;4.40;;;3.00;;
11791;SDS011;5953;52.372;9.918;2022-10-16T05:21:21;3.30;;;2.97;;
11791;SDS011;5953;52.372;9.918;2022-10-16T05:23:48;3.60;;;2.97;;
11791;SDS011;5953;52.372;9.918;2022-10-16T05:26:16;4.67;;;2.80;;
11791;SDS011;5953;52.372;9.918;2022-10-16T05:28:44;6.57;;;2.77;;
11791;SDS011;5953;52.372;9.918;2022-10-16T05:31:12;5.17;;;2.70;;
11791;SDS011;5953;52.372;9.918;2022-10-16T05:33:39;4.27;;;2.77;;
11791;SDS011;5953;52.372;9.918;2022-10-16T05:36:09;5.40;;;3.33;;
11791;SDS011;5953;52.372;9.918;2022-10-16T05:38:37;3.23;;;2.80;;
11791;SDS011;5953;52.372;9.918;2022-10-16T05:41:06;6.07;;;3.20;;
11791;SDS011;5953;52.372;9.918;2022-10-16T05:43:34;3.47;;;2.63;;
11791;SDS011;5953;52.372;9.918;2022-10-16T05:46:02;4.63;;;3.33;;
11791;SDS011;5953;52.372;9.918;2022-10-16T05:48:31;3.70;;;3.40;;
11791;SDS011;5953;52.372;9.918;2022-10-16T05:51:00;3.07;;;2.80;;
11791;SDS011;5953;52.372;9.918;2022-10-16T05:53:30;4.10;;;2.87;;
11791;SDS011;5953;52.372;9.918;2022-10-16T05:55:59;4.63;;;2.80;;
11791;SDS011;5953;52.372;9.918;2022-10-16T05:58:28;6.17;;;2.87;;
11791;SDS011;5953;52.372;9.918;2022-10-16T06:00:57;5.90;;;3.40;;
11791;SDS011;5953;52.372;9.918;2022-10-16T06:03:27;3.70;;;2.90;;
11791;SDS011;5953;52.372;9.918;2022-10-16T06:05:55;3.70;;;3.00;;
11791;SDS011;5953;52.372;9.918;2022-10-16T06:08:23;4.50;;;2.73;;
11791;SDS011;5953;52.372;9.918;2022-10-16T06:11:01;3.20;;;2.80;;
11791;SDS011;5953;52.372;9.918;2022-10-16T06:13:29;3.90;;;2.57;;
11791;SDS011;5953;52.372;9.918;2022-10-16T06:15:58;2.70;;;2.40;;
11791;SDS011;5953;52.372;9.918;2022-10-16T06:18:26;3.03;;;2.50;;
11791;SDS011;5953;52.372;9.918;2022-10-16T06:20:56;6.17;;;2.90;;
11791;SDS011;5953;52.372;9.918;2022-10-16T06:23:24;8.40;;;4.33;;
11791;SDS011;5953;52.372;9.918;2022-10-16T06:25:52;7.57;;;4.33;;
11791;SDS011;5953;52.372;9.918;2022-10-16T06:28:21;7.03;;;4.80;;
11791;SDS011;5953;52.372;9.918;2022-10-16T06:30:49;7.13;;;3.80;;
11791;SDS011;5953;52.372;9.918;2022-10-16T06:33:32;9.10;;;4.20;;
11791;SDS011;5953;52.372;9.918;2022-10-16T06:36:01;7.20;;;4.13;;
11791;SDS011;5953;52.372;9.918;2022-10-16T06:38:29;9.30;;;4.43;;
11791;SDS011;5953;52.372;9.918;2022-10-16T06:40:57;11.30;;;3.90;;
11791;SDS011;5953;52.372;9.918;2022-10-16T06:43:28;2.90;;;2.57;;
11791;SDS011;5953;52.372;9.918;2022-10-16T06:45:58;6.00;;;2.93;;
11791;SDS011;5953;52.372;9.918;2022-10-16T06:48:27;4.87;;;2.40;;
11791;SDS011;5953;52.372;9.918;2022-10-16T06:50:56;5.13;;;2.97;;
11791;SDS011;5953;52.372;9.918;2022-10-16T06:53:26;3.20;;;2.60;;
11791;SDS011;5953;52.372;9.918;2022-10-16T06:56:06;4.07;;;3.00;;
11791;SDS011;5953;52.372;9.918;2022-10-16T06:58:36;3.30;;;2.87;;
11791;SDS011;5953;52.372;9.918;2022-10-16T07:01:04;3.63;;;3.00;;
11791;SDS011;5953;52.372;9.918;2022-10-16T07:03:32;4.03;;;2.93;;
11791;SDS011;5953;52.372;9.918;2022-10-16T07:06:01;5.40;;;2.63;;
11791;SDS011;5953;52.372;9.918;2022-10-16T07:08:30;5.13;;;2.50;;
11791;SDS011;5953;52.372;9.918;2022-10-16T07:10:59;6.20;;;2.87;;
11791;SDS011;5953;52.372;9.918;2022-10-16T07:13:27;4.23;;;2.77;;
11791;SDS011;5953;52.372;9.918;2022-10-16T07:15:56;5.90;;;2.63;;
11791;SDS011;5953;52.372;9.918;2022-10-16T07:18:24;5.40;;;2.63;;
11791;SDS011;5953;52.372;9.918;2022-10-16T07:21:03;4.33;;;2.90;;
11791;SDS011;5953;52.372;9.918;2022-10-16T07:23:31;3.90;;;3.00;;
11791;SDS011;5953;52.372;9.918;2022-10-16T07:25:59;3.00;;;2.70;;
11791;SDS011;5953;52.372;9.918;2022-10-16T07:28:27;4.50;;;2.73;;
11791;SDS011;5953;52.372;9.918;2022-10-16T07:30:59;3.03;;;2.70;;
11791;SDS011;5953;52.372;9.918;2022-10-16T07:33:28;2.90;;;2.60;;
11791;SDS011;5953;52.372;9.918;2022-10-16T07:35:56;3.73;;;2.53;;
11791;SDS011;5953;52.372;9.918;2022-10-16T07:38:24;3.20;;;2.57;;
11791;SDS011;5953;52.372;9.918;2022-10-16T07:40:55;4.67;;;2.73;;
11791;SDS011;5953;52.372;9.918;2022-10-16T07:43:24;3.53;;;2.60;;
11791;SDS011;5953;52.372;9.918;2022-10-16T07:45:52;4.50;;;2.23;;
11791;SDS011;5953;52.372;9.918;2022-10-16T07:48:23;2.57;;;2.23;;
11791;SDS011;5953;52.372;9.918;2022-10-16T07:50:51;2.37;;;2.17;;
11791;SDS011;5953;52.372;9.918;2022-10-16T07:53:19;2.73;;;2.50;;
11791;SDS011;5953;52.372;9.918;2022-10-16T07:55:51;2.20;;;2.00;;
11791;SDS011;5953;52.372;9.918;2022-10-16T07:58:19;3.67;;;2.07;;
11791;SDS011;5953;52.372;9.918;2022-10-16T08:00:47;3.77;;;2.30;;
11791;SDS011;5953;52.372;9.918;2022-10-16T08:03:14;2.90;;;2.37;;
11791;SDS011;5953;52.372;9.918;2022-10-16T08:05:43;4.77;;;2.20;;
11791;SDS011;5953;52.372;9.918;2022-10-16T08:08:12;3.60;;;2.23;;
11791;SDS011;5953;52.372;9.918;2022-10-16T08:10:40;2.57;;;1.77;;
11791;SDS011;5953;52.372;9.918;2022-10-16T08:13:08;1.70;;;1.60;;
11791;SDS011;5953;52.372;9.918;2022-10-16T08:15:36;2.53;;;1.47;;
11791;SDS011;5953;52.372;9.918;2022-10-16T08:18:04;2.83;;;1.30;;
11791;SDS011;5953;52.372;9.918;2022-10-16T08:20:32;1.60;;;1.20;;
11791;SDS011;5953;52.372;9.918;2022-10-16T08:23:02;1.17;;;1.07;;
11791;SDS011;5953;52.372;9.918;2022-10-16T08:25:30;3.43;;;1.30;;
11791;SDS011;5953;52.372;9.918;2022-10-16T08:27:58;0.97;;;0.90;;
11791;SDS011;5953;52.372;9.918;2022-10-16T08:30:26;3.20;;;1.10;;
11791;SDS011;5953;52.372;9.918;2022-10-16T08:32:53;3.00;;;1.00;;
11791;SDS011;5953;52.372;9.918;2022-10-16T08:35:21;1.27;;;0.90;;
11791;SDS011;5953;52.372;9.918;2022-10-16T08:37:49;1.47;;;1.07;;
11791;SDS011;5953;52.372;9.918;2022-10-16T08:40:19;1.20;;;1.10;;
11791;SDS011;5953;52.372;9.918;2022-10-16T08:42:57;2.00;;;1.03;;
11791;SDS011;5953;52.372;9.918;2022-10-16T08:45:49;1.17;;;0.80;;
11791;SDS011;5953;52.372;9.918;2022-10-16T08:48:33;1.33;;;0.90;;
11791;SDS011;5953;52.372;9.918;2022-10-16T08:51:05;0.87;;;0.70;;
11791;SDS011;5953;52.372;9.918;2022-10-16T08:53:36;1.20;;;0.80;;
11791;SDS011;5953;52.372;9.918;2022-10-16T08:56:13;2.53;;;0.80;;
11791;SDS011;5953;52.372;9.918;2022-10-16T08:58:42;2.97;;;1.10;;
11791;SDS011;5953;52.372;9.918;2022-10-16T09:01:13;1.40;;;0.90;;
11791;SDS011;5953;52.372;9.918;2022-10-16T09:03:46;0.77;;;0.60;;
11791;SDS011;5953;52.372;9.918;2022-10-16T09:06:35;1.30;;;0.90;;
11791;SDS011;5953;52.372;9.918;2022-10-16T09:09:21;1.17;;;0.80;;
11791;SDS011;5953;52.372;9.918;2022-10-16T09:12:09;2.10;;;1.00;;
11791;SDS011;5953;52.372;9.918;2022-10-16T09:14:50;0.70;;;0.70;;
11791;SDS011;5953;52.372;9.918;2022-10-16T09:17:32;1.70;;;0.60;;
11791;SDS011;5953;52.372;9.918;2022-10-16T09:20:17;1.70;;;0.87;;
11791;SDS011;5953;52.372;9.918;2022-10-16T09:23:06;1.33;;;0.70;;
11791;SDS011;5953;52.372;9.918;2022-10-16T09:25:41;1.37;;;0.80;;
11791;SDS011;5953;52.372;9.918;2022-10-16T09:28:15;3.27;;;1.00;;
11791;SDS011;5953;52.372;9.918;2022-10-16T09:30:43;0.93;;;0.83;;
11791;SDS011;5953;52.372;9.918;2022-10-16T09:33:12;1.10;;;1.00;;
11791;SDS011;5953;52.372;9.918;2022-10-16T09:35:41;1.13;;;0.70;;
11791;SDS011;5953;52.372;9.918;2022-10-16T09:38:20;2.37;;;0.70;;
11791;SDS011;5953;52.372;9.918;2022-10-16T09:40:49;0.70;;;0.60;;
11791;SDS011;5953;52.372;9.918;2022-10-16T09:43:30;1.60;;;0.90;;
11791;SDS011;5953;52.372;9.918;2022-10-16T09:46:03;0.83;;;0.70;;
11791;SDS011;5953;52.372;9.918;2022-10-16T09:48:36;2.63;;;0.90;;
11791;SDS011;5953;52.372;9.918;2022-10-16T09:51:06;4.37;;;1.10;;
11791;SDS011;5953;52.372;9.918;2022-10-16T09:53:46;1.80;;;0.90;;
11791;SDS011;5953;52.372;9.918;2022-10-16T09:56:21;2.53;;;0.70;;
11791;SDS011;5953;52.372;9.918;2022-10-16T09:58:51;1.87;;;0.73;;
11791;SDS011;5953;52.372;9.918;2022-10-16T10:01:20;0.70;;;0.70;;
11791;SDS011;5953;52.372;9.918;2022-10-16T10:03:50;1.57;;;0.70;;
11791;SDS011;5953;52.372;9.918;2022-10-16T10:06:21;2.63;;;0.70;;
11791;SDS011;5953;52.372;9.918;2022-10-16T10:08:55;1.97;;;1.00;;
11791;SDS011;5953;52.372;9.918;2022-10-16T10:11:37;2.63;;;1.00;;
11791;SDS011;5953;52.372;9.918;2022-10-16T10:14:08;1.70;;;0.70;;
11791;SDS011;5953;52.372;9.918;2022-10-16T10:16:44;2.07;;;1.00;;
11791;SDS011;5953;52.372;9.918;2022-10-16T10:19:15;1.27;;;0.70;;
11791;SDS011;5953;52.372;9.918;2022-10-16T10:21:44;0.90;;;0.70;;
11791;SDS011;5953;52.372;9.918;2022-10-16T10:24:13;3.57;;;0.83;;
11791;SDS011;5953;52.372;9.918;2022-10-16T10:26:44;2.50;;;0.67;;
11791;SDS011;5953;52.372;9.918;2022-10-16T10:29:19;3.00;;;0.70;;
11791;SDS011;5953;52.372;9.918;2022-10-16T10:32:01;2.63;;;0.60;;
11791;SDS011;5953;52.372;9.918;2022-10-16T10:34:43;2.77;;;0.77;;
11791;SDS011;5953;52.372;9.918;2022-10-16T10:37:29;1.90;;;0.80;;
11791;SDS011;5953;52.372;9.918;2022-10-16T10:40:13;4.43;;;0.93;;
11791;SDS011;5953;52.372;9.918;2022-10-16T10:42:50;2.77;;;0.70;;
11791;SDS011;5953;52.372;9.918;2022-10-16T10:45:27;3.70;;;0.90;;
11791;SDS011;5953;52.372;9.918;2022-10-16T10:48:06;2.60;;;0.73;;
11791;SDS011;5953;52.372;9.918;2022-10-16T10:50:45;2.10;;;0.73;;
11791;SDS011;5953;52.372;9.918;2022-10-16T10:53:24;1.63;;;0.63;;
11791;SDS011;5953;52.372;9.918;2022-10-16T10:55:59;1.90;;;0.63;;
11791;SDS011;5953;52.372;9.918;2022-10-16T10:58:48;3.60;;;0.80;;
11791;SDS011;5953;52.372;9.918;2022-10-16T11:01:32;2.77;;;0.60;;
11791;SDS011;5953;52.372;9.918;2022-10-16T11:04:14;2.50;;;0.70;;
11791;SDS011;5953;52.372;9.918;2022-10-16T11:06:54;1.23;;;0.60;;
11791;SDS011;5953;52.372;9.918;2022-10-16T11:09:25;1.33;;;0.70;;
11791;SDS011;5953;52.372;9.918;2022-10-16T11:11:58;1.97;;;0.90;;
11791;SDS011;5953;52.372;9.918;2022-10-16T11:14:31;1.63;;;0.67;;
11791;SDS011;5953;52.372;9.918;2022-10-16T11:17:06;3.60;;;1.07;;
11791;SDS011;5953;52.372;9.918;2022-10-16T11:19:39;2.77;;;0.80;;
11791;SDS011;5953;52.372;9.918;2022-10-16T11:22:11;3.20;;;0.80;;
11791;SDS011;5953;52.372;9.918;2022-10-16T11:24:44;1.17;;;0.70;;
11791;SDS011;5953;52.372;9.918;2022-10-16T11:27:17;2.40;;;1.00;;
11791;SDS011;5953;52.372;9.918;2022-10-16T11:29:49;1.73;;;0.90;;
11791;SDS011;5953;52.372;9.918;2022-10-16T11:32:32;1.97;;;0.80;;
11791;SDS011;5953;52.372;9.918;2022-10-16T11:35:06;1.03;;;0.70;;
11791;SDS011;5953;52.372;9.918;2022-10-16T11:37:42;3.03;;;0.70;;
11791;SDS011;5953;52.372;9.918;2022-10-16T11:40:17;1.40;;;0.60;;
11791;SDS011;5953;52.372;9.918;2022-10-16T11:42:51;1.67;;;0.60;;
11791;SDS011;5953;52.372;9.918;2022-10-16T11:45:24;1.20;;;0.70;;
11791;SDS011;5953;52.372;9.918;2022-10-16T11:48:00;1.63;;;0.80;;
11791;SDS011;5953;52.372;9.918;2022-10-16T11:50:33;1.07;;;0.57;;
11791;SDS011;5953;52.372;9.918;2022-10-16T11:53:09;1.67;;;0.67;;
11791;SDS011;5953;52.372;9.918;2022-10-16T11:55:41;0.87;;;0.60;;
11791;SDS011;5953;52.372;9.918;2022-10-16T11:58:15;1.00;;;0.60;;
11791;SDS011;5953;52.372;9.918;2022-10-16T12:00:52;5.13;;;0.70;;
11791;SDS011;5953;52.372;9.918;2022-10-16T12:03:28;2.73;;;0.87;;
11791;SDS011;5953;52.372;9.918;2022-10-16T12:06:02;2.73;;;0.60;;
11791;SDS011;5953;52.372;9.918;2022-10-16T12:08:39;0.97;;;0.60;;
11791;SDS011;5953;52.372;9.918;2022-10-16T12:11:08;1.33;;;0.90;;
11791;SDS011;5953;52.372;9.918;2022-10-16T12:13:37;0.57;;;0.50;;
11791;SDS011;5953;52.372;9.918;2022-10-16T12:16:19;4.73;;;0.57;;
11791;SDS011;5953;52.372;9.918;2022-10-16T12:18:50;1.27;;;0.70;;
11791;SDS011;5953;52.372;9.918;2022-10-16T12:21:37;0.80;;;0.50;;
11791;SDS011;5953;52.372;9.918;2022-10-16T12:24:05;2.83;;;0.70;;
11791;SDS011;5953;52.372;9.918;2022-10-16T12:26:34;3.50;;;0.73;;
11791;SDS011;5953;52.372;9.918;2022-10-16T12:29:11;1.07;;;0.50;;
11791;SDS011;5953;52.372;9.918;2022-10-16T12:31:43;0.70;;;0.50;;
11791;SDS011;5953;52.372;9.918;2022-10-16T12:34:26;1.43;;;0.60;;
11791;SDS011;5953;52.372;9.918;2022-10-16T12:36:56;2.00;;;0.77;;
11791;SDS011;5953;52.372;9.918;2022-10-16T12:39:36;2.10;;;0.60;;
11791;SDS011;5953;52.372;9.918;2022-10-16T12:42:05;1.30;;;0.67;;
11791;SDS011;5953;52.372;9.918;2022-10-16T12:44:46;1.17;;;0.60;;
11791;SDS011;5953;52.372;9.918;2022-10-16T12:47:21;0.93;;;0.60;;
11791;SDS011;5953;52.372;9.918;2022-10-16T12:49:52;2.33;;;0.70;;
11791;SDS011;5953;52.372;9.918;2022-10-16T12:52:25;0.93;;;0.40;;
11791;SDS011;5953;52.372;9.918;2022-10-16T12:54:56;1.23;;;0.60;;
11791;SDS011;5953;52.372;9.918;2022-10-16T12:57:29;1.23;;;0.50;;
11791;SDS011;5953;52.372;9.918;2022-10-16T13:00:06;1.67;;;0.70;;
11791;SDS011;5953;52.372;9.918;2022-10-16T13:02:49;0.60;;;0.50;;
11791;SDS011;5953;52.372;9.918;2022-10-16T13:05:40;2.30;;;0.83;;
11791;SDS011;5953;52.372;9.918;2022-10-16T13:08:23;1.63;;;1.00;;
11791;SDS011;5953;52.372;9.918;2022-10-16T13:11:08;1.73;;;0.50;;
11791;SDS011;5953;52.372;9.918;2022-10-16T13:13:51;0.43;;;0.40;;
11791;SDS011;5953;52.372;9.918;2022-10-16T13:16:32;1.57;;;0.70;;
11791;SDS011;5953;52.372;9.918;2022-10-16T13:19:11;4.97;;;0.90;;
11791;SDS011;5953;52.372;9.918;2022-10-16T13:21:48;1.63;;;0.80;;
11791;SDS011;5953;52.372;9.918;2022-10-16T13:24:26;2.40;;;0.50;;
11791;SDS011;5953;52.372;9.918;2022-10-16T13:27:11;0.83;;;0.47;;
11791;SDS011;5953;52.372;9.918;2022-10-16T13:29:51;1.43;;;0.63;;
11791;SDS011;5953;52.372;9.918;2022-10-16T13:32:22;1.10;;;0.40;;
11791;SDS011;5953;52.372;9.918;2022-10-16T13:34:50;2.63;;;0.70;;
11791;SDS011;5953;52.372;9.918;2022-10-16T13:37:22;1.40;;;0.53;;
11791;SDS011;5953;52.372;9.918;2022-10-16T13:40:02;0.90;;;0.50;;
11791;SDS011;5953;52.372;9.918;2022-10-16T13:42:39;2.00;;;0.50;;
11791;SDS011;5953;52.372;9.918;2022-10-16T13:45:17;2.93;;;0.70;;
11791;SDS011;5953;52.372;9.918;2022-10-16T13:47:45;1.73;;;0.53;;
11791;SDS011;5953;52.372;9.918;2022-10-16T13:50:14;0.97;;;0.60;;
11791;SDS011;5953;52.372;9.918;2022-10-16T13:52:44;2.77;;;0.83;;
11791;SDS011;5953;52.372;9.918;2022-10-16T13:55:12;1.00;;;0.70;;
11791;SDS011;5953;52.372;9.918;2022-10-16T13:57:41;3.13;;;0.70;;
11791;SDS011;5953;52.372;9.918;2022-10-16T14:00:20;1.10;;;0.80;;
11791;SDS011;5953;52.372;9.918;2022-10-16T14:02:51;2.50;;;0.50;;
11791;SDS011;5953;52.372;9.918;2022-10-16T14:05:22;2.00;;;0.70;;
11791;SDS011;5953;52.372;9.918;2022-10-16T14:07:51;2.43;;;0.60;;
11791;SDS011;5953;52.372;9.918;2022-10-16T14:10:22;2.63;;;0.80;;
11791;SDS011;5953;52.372;9.918;2022-10-16T14:12:56;2.37;;;0.60;;
11791;SDS011;5953;52.372;9.918;2022-10-16T14:15:25;1.50;;;0.60;;
11791;SDS011;5953;52.372;9.918;2022-10-16T14:17:53;1.47;;;0.80;;
11791;SDS011;5953;52.372;9.918;2022-10-16T14:20:23;1.57;;;0.60;;
11791;SDS011;5953;52.372;9.918;2022-10-16T14:23:01;1.37;;;0.70;;
11791;SDS011;5953;52.372;9.918;2022-10-16T14:25:31;1.60;;;0.70;;
11791;SDS011;5953;52.372;9.918;2022-10-16T14:28:00;0.87;;;0.77;;
11791;SDS011;5953;52.372;9.918;2022-10-16T14:30:30;1.23;;;0.70;;
11791;SDS011;5953;52.372;9.918;2022-10-16T14:33:00;0.93;;;0.70;;
11791;SDS011;5953;52.372;9.918;2022-10-16T14:35:30;3.00;;;0.43;;
11791;SDS011;5953;52.372;9.918;2022-10-16T14:38:01;2.57;;;0.70;;
11791;SDS011;5953;52.372;9.918;2022-10-16T14:40:31;0.80;;;0.60;;
11791;SDS011;5953;52.372;9.918;2022-10-16T14:43:00;3.20;;;0.70;;
11791;SDS011;5953;52.372;9.918;2022-10-16T14:45:29;1.40;;;0.60;;
11791;SDS011;5953;52.372;9.918;2022-10-16T14:48:00;1.17;;;0.60;;
11791;SDS011;5953;52.372;9.918;2022-10-16T14:50:32;1.80;;;0.70;;
11791;SDS011;5953;52.372;9.918;2022-10-16T14:53:01;5.10;;;0.77;;
11791;SDS011;5953;52.372;9.918;2022-10-16T14:55:29;2.03;;;0.63;;
11791;SDS011;5953;52.372;9.918;2022-10-16T14:57:57;0.90;;;0.60;;
11791;SDS011;5953;52.372;9.918;2022-10-16T15:00:26;1.00;;;0.53;;
11791;SDS011;5953;52.372;9.918;2022-10-16T15:02:54;2.03;;;0.80;;
11791;SDS011;5953;52.372;9.918;2022-10-16T15:05:22;1.90;;;0.60;;
11791;SDS011;5953;52.372;9.918;2022-10-16T15:07:52;4.03;;;1.10;;
11791;SDS011;5953;52.372;9.918;2022-10-16T15:10:23;4.00;;;1.90;;
11791;SDS011;5953;52.372;9.918;2022-10-16T15:12:52;2.33;;;1.30;;
11791;SDS011;5953;52.372;9.918;2022-10-16T15:15:23;2.77;;;1.77;;
11791;SDS011;5953;52.372;9.918;2022-10-16T15:17:54;3.03;;;0.77;;
11791;SDS011;5953;52.372;9.918;2022-10-16T15:20:23;2.50;;;1.10;;
11791;SDS011;5953;52.372;9.918;2022-10-16T15:22:51;1.73;;;0.90;;
11791;SDS011;5953;52.372;9.918;2022-10-16T15:25:27;2.80;;;0.97;;
11791;SDS011;5953;52.372;9.918;2022-10-16T15:27:58;2.00;;;0.73;;